Time;durP1;ratioP1;P1;durP2;ratioP2;P2;SDS_P1;SDS_P2;PMS_P1;PMS_P2;Temp;Humidity;BMP_temperature;BMP_pressure;BME280_temperature;BME280_humidity;BME280_pressure;Samples;Min_cycle;Max_cycle;Signal;HPM_P1;HPM_P2
2022/05/28 00:00:10;;;;;;;14.68;2.75;;;;;;;11.04;74.60;102047.34;5037348;28;20829;-70
2022/05/28 00:02:36;;;;;;;11.02;2.78;;;;;;;11.00;74.67;102055.59;5032947;28;20041;-70
2022/05/28 00:05:02;;;;;;;9.57;2.67;;;;;;;10.95;75.14;102052.25;5032094;28;20041;-70
2022/05/28 00:07:27;;;;;;;12.18;4.10;;;;;;;10.90;75.74;102055.13;5032343;28;20033;-70
2022/05/28 00:09:52;;;;;;;8.30;2.63;;;;;;;10.94;75.45;102053.16;5030824;28;20043;-68
2022/05/28 00:12:22;;;;;;;19.13;2.63;;;;;;;10.89;76.01;102046.28;5030165;28;20102;-69
2022/05/28 00:14:48;;;;;;;7.15;2.50;;;;;;;10.87;75.75;102045.44;5033349;28;20053;-70
2022/05/28 00:17:13;;;;;;;10.25;2.50;;;;;;;10.81;76.15;102037.72;5029527;28;20857;-70
2022/05/28 00:19:39;;;;;;;7.47;2.08;;;;;;;10.87;76.04;102047.25;5031714;28;20111;-69
2022/05/28 00:22:04;;;;;;;13.25;2.63;;;;;;;10.83;76.21;102049.19;5033474;28;20044;-70
2022/05/28 00:24:29;;;;;;;11.45;2.70;;;;;;;10.81;76.09;102051.06;5036672;28;20158;-69
2022/05/28 00:26:55;;;;;;;7.57;2.78;;;;;;;10.73;76.82;102044.34;5036346;28;20862;-70
2022/05/28 00:29:21;;;;;;;7.03;2.50;;;;;;;10.69;76.84;102054.28;5035897;28;20040;-70
2022/05/28 00:31:47;;;;;;;10.82;2.90;;;;;;;10.64;77.68;102050.94;5036898;28;20756;-71
2022/05/28 00:34:12;;;;;;;9.48;3.22;;;;;;;10.62;77.26;102043.00;5035624;28;20132;-69
2022/05/28 00:36:38;;;;;;;12.70;3.22;;;;;;;10.62;77.32;102042.16;5036284;28;20044;-70
2022/05/28 00:39:03;;;;;;;10.15;2.47;;;;;;;10.55;77.71;102043.38;5039446;28;20025;-70
2022/05/28 00:41:28;;;;;;;12.98;3.20;;;;;;;10.53;77.76;102040.75;5056400;28;20487;-70
2022/05/28 00:43:54;;;;;;;9.40;2.60;;;;;;;10.47;78.08;102043.69;5056639;28;20025;-70
2022/05/28 00:46:23;;;;;;;7.57;2.95;;;;;;;10.45;78.21;102047.38;5056246;28;20044;-70
2022/05/28 00:48:53;;;;;;;14.63;3.20;;;;;;;10.48;78.00;102045.41;5057853;28;20036;-69
2022/05/28 00:51:27;;;;;;;17.95;2.88;;;;;;;10.45;78.62;102037.56;5057147;28;20486;-70
2022/05/28 00:53:56;;;;;;;13.27;2.80;;;;;;;10.46;78.83;102028.63;5057901;28;20047;-70
2022/05/28 00:56:22;;;;;;;13.38;3.58;;;;;;;10.45;78.83;102029.56;5057685;28;20051;-70
2022/05/28 00:58:49;;;;;;;8.20;3.00;;;;;;;10.37;79.66;102035.22;5054448;28;20044;-70
2022/05/28 01:01:15;;;;;;;11.20;3.35;;;;;;;10.40;79.73;102028.03;5036438;28;20132;-70
2022/05/28 01:03:43;;;;;;;12.10;2.80;;;;;;;10.37;80.10;102029.03;5037635;28;20044;-70
2022/05/28 01:06:21;;;;;;;14.88;3.30;;;;;;;10.37;79.59;102024.56;5036541;28;20052;-69
2022/05/28 01:08:56;;;;;;;17.65;3.63;;;;;;;10.35;80.27;102017.56;5037102;28;20048;-70
2022/05/28 01:11:44;;;;;;;12.32;2.95;;;;;;;10.38;79.65;102012.09;5038520;28;20815;-70
2022/05/28 01:14:25;;;;;;;14.50;3.47;;;;;;;10.42;79.41;102012.81;5038623;28;20144;-72
2022/05/28 01:16:53;;;;;;;15.63;3.55;;;;;;;10.38;79.85;102006.75;5037541;28;20037;-70
2022/05/28 01:19:42;;;;;;;10.82;3.63;;;;;;;10.33;80.06;102008.75;5037933;28;20974;-70
2022/05/28 01:22:19;;;;;;;8.23;2.67;;;;;;;10.31;80.44;102007.97;5037260;28;20039;-70
2022/05/28 01:25:07;;;;;;;16.25;3.38;;;;;;;10.29;80.87;102007.16;5037209;28;20055;-70
2022/05/28 01:27:41;;;;;;;21.98;3.90;;;;;;;10.26;80.82;101999.31;5023746;28;20123;-70
2022/05/28 01:30:10;;;;;;;6.45;2.83;;;;;;;10.34;80.48;101997.16;5022935;28;20075;-71
2022/05/28 01:32:37;;;;;;;11.30;3.90;;;;;;;10.28;80.71;101992.09;5034742;28;20530;-71
2022/05/28 01:35:08;;;;;;;10.60;3.15;;;;;;;10.20;81.26;101984.41;5026720;28;20605;-70
2022/05/28 01:37:35;;;;;;;11.05;3.35;;;;;;;10.28;81.08;101989.44;5031804;28;20047;-71
2022/05/28 01:40:04;;;;;;;8.80;2.90;;;;;;;10.28;81.10;101979.63;5039558;28;20041;-70
2022/05/28 01:42:31;;;;;;;8.57;3.15;;;;;;;10.22;82.00;101984.34;5034338;28;20049;-71
2022/05/28 01:44:58;;;;;;;13.48;3.53;;;;;;;10.26;81.57;101985.97;5019433;28;20458;-70
2022/05/28 01:47:25;;;;;;;11.70;3.03;;;;;;;10.19;82.01;101984.47;5034541;28;20052;-70
2022/05/28 01:49:52;;;;;;;8.63;2.65;;;;;;;10.18;81.95;101982.72;5034916;28;20045;-70
2022/05/28 01:52:20;;;;;;;14.93;3.55;;;;;;;10.21;82.05;101979.94;5033282;28;20127;-70
2022/05/28 01:54:48;;;;;;;20.20;3.78;;;;;;;10.12;82.81;101992.72;5031845;28;20037;-70
2022/05/28 01:57:14;;;;;;;13.88;3.97;;;;;;;10.12;82.60;101991.88;5023268;28;20602;-70
2022/05/28 01:59:40;;;;;;;12.63;3.10;;;;;;;10.21;82.38;101995.94;5035886;28;20040;-70
2022/05/28 02:02:09;;;;;;;14.05;3.20;;;;;;;10.10;83.15;101989.28;5035161;28;20033;-71
2022/05/28 02:04:36;;;;;;;10.77;2.97;;;;;;;10.12;83.61;102000.72;5033592;28;20045;-70
2022/05/28 02:07:05;;;;;;;9.88;4.35;;;;;;;10.14;83.29;102006.00;5034822;28;20037;-71
2022/05/28 02:09:37;;;;;;;14.27;3.58;;;;;;;10.18;83.38;102012.06;5034196;28;20114;-70
2022/05/28 02:12:26;;;;;;;7.95;3.15;;;;;;;10.15;83.57;102020.19;5024127;28;20042;-70
2022/05/28 02:15:05;;;;;;;13.73;3.28;;;;;;;10.10;84.01;102012.41;5022892;28;20128;-70
2022/05/28 02:17:52;;;;;;;8.93;3.53;;;;;;;10.13;84.04;102013.09;5015056;28;20176;-69
2022/05/28 02:20:49;;;;;;;11.60;3.80;;;;;;;10.10;84.68;102012.41;5021918;28;20038;-71
2022/05/28 02:23:16;;;;;;;11.98;3.33;;;;;;;10.09;84.76;102015.97;5015677;28;20041;-69
2022/05/28 02:25:51;;;;;;;17.92;3.60;;;;;;;10.13;84.49;102013.09;5019751;28;20103;-69
2022/05/28 02:28:17;;;;;;;11.40;3.47;;;;;;;10.08;84.95;102020.44;5019005;28;20788;-70
2022/05/28 02:30:52;;;;;;;10.30;3.08;;;;;;;10.08;85.17;102007.09;5020163;28;20740;-70
2022/05/28 02:33:19;;;;;;;11.30;3.90;;;;;;;10.00;85.55;102025.25;5013923;28;20813;-70
2022/05/28 02:35:47;;;;;;;15.35;3.90;;;;;;;10.05;85.85;102012.59;5014973;28;20033;-70
2022/05/28 02:38:14;;;;;;;10.95;3.60;;;;;;;10.04;85.81;102018.84;5022040;28;20047;-70
2022/05/28 02:40:40;;;;;;;16.58;3.40;;;;;;;10.07;85.79;102017.84;5036153;28;20125;-70
2022/05/28 02:43:05;;;;;;;10.73;3.50;;;;;;;10.12;85.87;102008.72;5033274;28;20037;-70
2022/05/28 02:45:30;;;;;;;12.18;3.13;;;;;;;10.11;85.97;102007.00;5033682;28;20045;-70
2022/05/28 02:47:56;;;;;;;19.92;4.25;;;;;;;10.16;86.34;102004.13;5033697;28;20828;-70
2022/05/28 02:50:22;;;;;;;10.27;3.95;;;;;;;10.20;85.91;102007.53;5034596;28;20576;-70
2022/05/28 02:52:48;;;;;;;15.30;3.22;;;;;;;10.24;85.81;102004.72;5034303;28;20148;-69
2022/05/28 02:55:13;;;;;;;13.00;3.38;;;;;;;10.25;86.32;102002.91;5033800;28;20041;-70
2022/05/28 02:57:39;;;;;;;7.50;3.03;;;;;;;10.20;86.23;102000.41;5032947;28;20921;-70
2022/05/28 03:00:07;;;;;;;9.10;3.13;;;;;;;10.16;86.51;102000.59;5032761;28;20052;-69
2022/05/28 03:02:32;;;;;;;14.05;3.38;;;;;;;10.19;86.75;102004.00;5031617;28;20045;-69
2022/05/28 03:04:58;;;;;;;12.25;3.97;;;;;;;10.32;86.74;102004.38;5031997;28;20028;-69
2022/05/28 03:07:24;;;;;;;9.40;3.42;;;;;;;10.47;85.92;102001.03;5029685;28;20037;-69
2022/05/28 03:09:50;;;;;;;14.80;3.58;;;;;;;10.54;85.92;102005.16;5033264;28;20141;-69
2022/05/28 03:12:16;;;;;;;7.75;3.00;;;;;;;10.55;85.98;102009.56;5032754;28;20760;-69
2022/05/28 03:14:41;;;;;;;11.32;3.20;;;;;;;10.57;85.86;102007.69;5019981;28;20052;-70
2022/05/28 03:17:07;;;;;;;17.27;3.63;;;;;;;10.48;86.31;102009.88;5032275;28;20522;-69
2022/05/28 03:19:32;;;;;;;13.52;3.80;;;;;;;10.33;87.02;102009.63;5032792;28;20754;-69
2022/05/28 03:21:57;;;;;;;9.60;3.17;;;;;;;10.29;86.82;102012.47;5032503;28;20087;-69
2022/05/28 03:24:23;;;;;;;11.43;3.03;;;;;;;10.30;86.52;102015.09;5032508;28;20087;-69
2022/05/28 03:26:48;;;;;;;15.85;3.50;;;;;;;10.26;86.14;102015.31;5033674;28;20044;-69
2022/05/28 03:29:14;;;;;;;12.32;3.28;;;;;;;10.21;86.33;102025.25;5032286;28;20805;-69
2022/05/28 03:31:39;;;;;;;7.00;2.78;;;;;;;10.10;86.49;102021.25;5032841;28;20087;-69
2022/05/28 03:34:05;;;;;;;15.73;3.83;;;;;;;10.15;86.33;102022.88;5028655;28;20040;-69
2022/05/28 03:36:30;;;;;;;12.43;2.75;;;;;;;10.19;86.39;102021.78;5013411;28;20102;-70
2022/05/28 03:38:56;;;;;;;14.43;4.63;;;;;;;10.16;86.31;102019.25;5030503;28;20542;-70
2022/05/28 03:41:22;;;;;;;19.38;3.20;;;;;;;10.10;86.80;102023.06;5032328;28;20037;-69
2022/05/28 03:43:48;;;;;;;11.98;2.55;;;;;;;10.15;86.39;102021.06;5031261;28;20044;-69
2022/05/28 03:46:29;;;;;;;14.23;3.45;;;;;;;10.11;86.56;102030.13;5031521;28;20179;-69
2022/05/28 03:48:59;;;;;;;12.93;2.55;;;;;;;10.08;86.56;102028.44;5033253;28;20041;-70
2022/05/28 03:51:24;;;;;;;10.48;2.70;;;;;;;10.00;86.58;102027.91;5032843;28;20124;-69
2022/05/28 03:53:50;;;;;;;15.48;2.90;;;;;;;9.98;86.79;102032.41;5033159;28;20467;-69
2022/05/28 03:56:16;;;;;;;9.27;2.75;;;;;;;10.00;86.45;102025.25;5027363;28;20120;-69
2022/05/28 03:58:41;;;;;;;10.52;2.88;;;;;;;9.98;86.72;102018.22;5023314;28;20034;-70
2022/05/28 04:01:06;;;;;;;11.80;2.53;;;;;;;9.95;86.88;102027.22;5031468;28;20041;-69
2022/05/28 04:03:33;;;;;;;10.07;2.40;;;;;;;9.99;86.79;102035.94;5032527;28;20044;-69
2022/05/28 04:05:59;;;;;;;12.70;3.28;;;;;;;9.93;86.74;102038.88;5032729;28;20123;-69
2022/05/28 04:08:24;;;;;;;15.55;3.58;;;;;;;9.94;86.86;102041.50;5032850;28;20043;-70
2022/05/28 04:10:50;;;;;;;7.82;2.80;;;;;;;9.99;86.34;102038.59;5032914;28;20740;-69
2022/05/28 04:13:15;;;;;;;10.00;2.60;;;;;;;9.91;86.60;102040.75;5031950;28;20378;-69
2022/05/28 04:15:40;;;;;;;10.85;3.50;;;;;;;9.93;86.02;102041.53;5032406;28;20037;-70
2022/05/28 04:18:07;;;;;;;8.68;2.38;;;;;;;9.93;86.31;102053.06;5032074;28;20041;-69
2022/05/28 04:20:34;;;;;;;13.52;2.65;;;;;;;9.99;85.96;102043.94;5033097;28;20126;-69
2022/05/28 04:22:59;;;;;;;12.70;2.25;;;;;;;10.00;86.09;102043.03;5032020;28;20055;-69
2022/05/28 04:25:25;;;;;;;7.65;2.97;;;;;;;10.03;85.46;102046.41;5032023;28;20045;-70
2022/05/28 04:27:50;;;;;;;9.77;2.75;;;;;;;10.06;85.68;102040.97;5020644;28;20052;-69
2022/05/28 04:30:16;;;;;;;7.15;2.17;;;;;;;10.23;84.90;102050.03;5028944;28;20028;-69
2022/05/28 04:32:41;;;;;;;13.30;3.60;;;;;;;10.36;84.49;102053.97;5023000;28;20812;-70
2022/05/28 04:35:08;;;;;;;11.43;2.45;;;;;;;10.34;84.47;102053.13;5015350;28;20791;-70
2022/05/28 04:37:33;;;;;;;7.20;2.75;;;;;;;10.42;84.49;102058.16;5029953;28;20032;-70
2022/05/28 04:39:59;;;;;;;7.40;1.90;;;;;;;10.47;83.95;102061.50;5031422;28;20041;-70
2022/05/28 04:42:24;;;;;;;8.45;2.70;;;;;;;10.43;84.46;102058.09;5031633;28;20048;-70
2022/05/28 04:44:50;;;;;;;8.18;3.05;;;;;;;10.75;82.38;102054.03;5031510;28;20041;-70
2022/05/28 04:47:15;;;;;;;8.15;2.38;;;;;;;11.08;80.35;102059.63;5031238;28;20037;-69
2022/05/28 04:49:40;;;;;;;6.35;2.47;;;;;;;11.00;81.00;102052.91;5031551;28;20100;-70
2022/05/28 04:52:06;;;;;;;13.00;2.35;;;;;;;11.34;80.25;102055.72;5029141;28;20041;-70
2022/05/28 04:54:32;;;;;;;11.40;2.33;;;;;;;12.72;74.41;102061.41;5031470;28;20095;-70
2022/05/28 04:56:57;;;;;;;9.18;2.25;;;;;;;12.65;73.44;102053.69;5032473;28;20033;-69
2022/05/28 04:59:23;;;;;;;10.02;2.08;;;;;;;14.87;65.84;102050.88;5030942;28;20068;-69
2022/05/28 05:01:48;;;;;;;5.25;1.38;;;;;;;15.84;61.90;102046.41;5017822;28;20624;-70
2022/05/28 05:04:13;;;;;;;4.25;1.63;;;;;;;16.06;60.51;102045.84;5032323;28;20045;-71
2022/05/28 05:06:39;;;;;;;4.20;1.40;;;;;;;16.82;58.08;102040.63;5033504;28;20044;-70
2022/05/28 05:09:04;;;;;;;7.88;1.52;;;;;;;17.34;56.59;102039.56;5035460;28;20060;-70
2022/05/28 05:11:30;;;;;;;3.63;1.42;;;;;;;17.36;57.06;102042.13;5036849;28;20037;-70
2022/05/28 05:13:55;;;;;;;8.18;1.60;;;;;;;16.96;57.31;102044.16;5036213;28;20029;-70
2022/05/28 05:16:21;;;;;;;7.68;1.75;;;;;;;16.23;58.29;102050.09;5035984;28;20825;-68
2022/05/28 05:18:46;;;;;;;5.82;1.35;;;;;;;16.21;57.58;102052.03;5037448;28;20433;-69
2022/05/28 05:21:12;;;;;;;10.68;1.58;;;;;;;16.46;58.42;102045.81;5037606;28;20044;-69
2022/05/28 05:23:42;;;;;;;5.50;1.88;;;;;;;16.22;58.77;102051.06;5037478;28;20791;-68
2022/05/28 05:26:12;;;;;;;8.90;1.67;;;;;;;15.77;59.69;102055.88;5036626;28;20791;-68
2022/05/28 05:28:37;;;;;;;5.00;1.17;;;;;;;16.58;58.04;102048.53;5037508;28;20052;-69
2022/05/28 05:31:02;;;;;;;8.90;1.67;;;;;;;16.92;56.27;102054.31;5036663;28;20033;-68
2022/05/28 05:33:28;;;;;;;6.88;1.80;;;;;;;15.67;58.62;102061.00;5037135;28;20045;-68
2022/05/28 05:35:53;;;;;;;9.18;1.50;;;;;;;15.95;57.74;102067.22;5021249;28;20028;-68
2022/05/28 05:38:19;;;;;;;6.95;1.40;;;;;;;16.43;57.71;102059.53;5017870;28;20115;-68
2022/05/28 05:40:44;;;;;;;6.72;1.35;;;;;;;16.21;57.64;102065.47;5021972;28;20052;-69
2022/05/28 05:43:09;;;;;;;10.10;1.30;;;;;;;16.63;56.16;102064.38;5020756;28;20033;-69
2022/05/28 05:45:35;;;;;;;5.03;1.33;;;;;;;16.95;54.71;102058.59;5015261;28;20042;-69
2022/05/28 05:48:01;;;;;;;4.07;1.10;;;;;;;17.00;55.15;102064.53;5033673;28;20538;-68
2022/05/28 05:50:26;;;;;;;4.18;1.70;;;;;;;17.04;54.73;102061.50;5031219;28;20884;-68
2022/05/28 05:52:52;;;;;;;5.38;1.33;;;;;;;16.97;54.58;102062.06;5029574;28;20029;-68
2022/05/28 05:55:17;;;;;;;5.68;1.48;;;;;;;17.37;53.77;102059.19;5029651;28;20048;-68
2022/05/28 05:57:43;;;;;;;4.00;1.38;;;;;;;17.90;54.32;102066.06;5021986;28;20063;-69
2022/05/28 06:00:09;;;;;;;8.23;1.40;;;;;;;17.54;52.23;102061.53;5021662;28;20341;-69
2022/05/28 06:02:34;;;;;;;7.05;1.30;;;;;;;17.05;52.33;102059.66;5015008;28;20057;-69
2022/05/28 06:05:00;;;;;;;5.38;1.42;;;;;;;17.12;54.07;102068.16;5017622;28;20094;-69
2022/05/28 06:07:26;;;;;;;3.30;1.25;;;;;;;16.60;54.02;102072.66;5024654;28;20099;-69
2022/05/28 06:09:51;;;;;;;8.20;1.55;;;;;;;16.52;52.69;102069.66;5022828;28;20114;-69
2022/05/28 06:12:17;;;;;;;7.03;0.93;;;;;;;16.53;52.30;102074.94;5029873;28;20033;-68
2022/05/28 06:14:42;;;;;;;5.47;1.30;;;;;;;16.79;53.86;102067.75;5029479;28;20117;-68
2022/05/28 06:17:08;;;;;;;9.05;1.52;;;;;;;17.42;51.73;102067.78;5024990;28;20864;-68
2022/05/28 06:19:34;;;;;;;4.78;0.93;;;;;;;17.44;51.35;102077.50;5012491;28;20041;-69
2022/05/28 06:22:00;;;;;;;5.57;1.50;;;;;;;17.66;53.12;102076.78;5016010;28;20072;-68
2022/05/28 06:24:26;;;;;;;5.32;1.27;;;;;;;17.38;52.85;102071.72;5011825;28;20439;-69
2022/05/28 06:26:52;;;;;;;6.53;1.40;;;;;;;16.77;52.86;102082.31;5015070;28;20051;-69
2022/05/28 06:29:17;;;;;;;5.28;1.30;;;;;;;16.43;52.68;102078.38;5024203;28;20391;-69
2022/05/28 06:31:43;;;;;;;4.07;1.20;;;;;;;16.80;52.05;102074.00;5014568;28;20119;-69
2022/05/28 06:34:08;;;;;;;3.35;0.85;;;;;;;16.67;50.71;102071.28;5013394;28;20046;-70
2022/05/28 06:36:34;;;;;;;5.88;1.20;;;;;;;17.74;50.26;102076.28;5024397;28;20056;-70
2022/05/28 06:38:59;;;;;;;4.82;1.20;;;;;;;17.44;48.25;102068.56;5034824;28;20040;-69
2022/05/28 06:41:24;;;;;;;3.13;1.00;;;;;;;15.78;50.73;102084.50;5032264;28;20102;-70
2022/05/28 06:43:51;;;;;;;3.03;1.35;;;;;;;15.78;51.32;102079.97;5031968;28;20783;-69
2022/05/28 06:46:17;;;;;;;3.85;1.23;;;;;;;16.04;50.46;102082.75;5030630;28;20069;-70
2022/05/28 06:48:42;;;;;;;3.63;0.82;;;;;;;16.38;50.67;102075.97;5033722;28;20144;-70
2022/05/28 06:51:08;;;;;;;5.07;0.95;;;;;;;17.02;49.35;102074.25;5030649;28;20039;-70
2022/05/28 06:53:45;;;;;;;2.88;1.23;;;;;;;17.39;48.02;102078.81;5033759;28;20663;-70
2022/05/28 06:56:11;;;;;;;6.47;1.33;;;;;;;17.53;47.32;102081.38;5030863;28;20036;-69
2022/05/28 06:58:37;;;;;;;4.38;1.58;;;;;;;16.17;48.61;102083.69;5032653;28;20088;-69
2022/05/28 07:01:03;;;;;;;7.10;2.25;;;;;;;16.65;47.95;102072.34;5032069;28;20033;-69
2022/05/28 07:03:30;;;;;;;6.20;1.27;;;;;;;16.27;49.52;102079.41;5032972;28;20056;-69
2022/05/28 07:05:56;;;;;;;3.42;1.10;;;;;;;15.40;50.74;102089.59;5032142;28;20151;-69
2022/05/28 07:08:22;;;;;;;3.10;1.00;;;;;;;15.36;52.57;102086.28;5032760;28;20887;-69
2022/05/28 07:10:50;;;;;;;5.15;1.30;;;;;;;15.97;51.26;102090.38;5032492;28;20128;-69
2022/05/28 07:13:17;;;;;;;6.68;1.27;;;;;;;16.99;49.01;102073.59;5017259;28;20090;-69
2022/05/28 07:15:43;;;;;;;4.70;1.20;;;;;;;17.44;47.52;102077.50;5032172;28;20140;-68
2022/05/28 07:18:09;;;;;;;5.40;1.40;;;;;;;18.26;45.32;102072.34;5017827;28;20060;-69
2022/05/28 07:20:34;;;;;;;4.13;1.27;;;;;;;17.98;44.55;102082.56;5031512;28;20040;-69
2022/05/28 07:23:06;;;;;;;6.70;1.50;;;;;;;17.17;47.85;102082.19;5032046;28;20486;-69
2022/05/28 07:25:32;;;;;;;7.03;1.52;;;;;;;16.18;48.24;102084.53;5006798;28;20151;-70
2022/05/28 07:27:57;;;;;;;6.47;1.40;;;;;;;15.99;49.55;102092.97;5025054;28;20824;-70
2022/05/28 07:30:23;;;;;;;6.97;1.25;;;;;;;15.34;50.34;102088.19;5031428;28;20068;-70
2022/05/28 07:32:48;;;;;;;6.93;1.63;;;;;;;14.99;52.07;102087.69;5030537;28;20031;-70
2022/05/28 07:35:13;;;;;;;4.55;1.38;;;;;;;15.01;52.45;102099.22;5017250;28;20107;-70
2022/05/28 07:37:39;;;;;;;10.07;2.00;;;;;;;14.87;51.93;102096.53;5031458;28;20689;-70
2022/05/28 07:40:05;;;;;;;7.40;1.58;;;;;;;14.84;54.16;102102.94;5026467;28;20045;-69
2022/05/28 07:42:30;;;;;;;8.25;1.40;;;;;;;14.97;51.95;102097.69;5015190;28;20056;-69
2022/05/28 07:44:56;;;;;;;7.10;1.52;;;;;;;15.08;54.15;102099.72;5028258;28;20048;-69
2022/05/28 07:47:21;;;;;;;4.53;1.05;;;;;;;15.06;53.05;102105.19;5028140;28;20029;-69
2022/05/28 07:49:47;;;;;;;10.85;1.92;;;;;;;15.25;51.36;102102.19;5030691;28;20786;-70
2022/05/28 07:52:12;;;;;;;5.53;2.13;;;;;;;14.80;53.84;102100.53;5031143;28;20040;-69
2022/05/28 07:54:38;;;;;;;4.57;1.85;;;;;;;14.94;53.69;102098.72;5028673;28;20488;-69
2022/05/28 07:57:04;;;;;;;10.20;1.55;;;;;;;14.87;55.49;102101.91;5013878;28;20041;-69
2022/05/28 07:59:30;;;;;;;9.13;1.88;;;;;;;16.36;54.16;102101.25;5022997;28;20087;-69
2022/05/28 08:01:56;;;;;;;8.27;1.55;;;;;;;17.59;47.08;102091.72;5032837;28;20036;-69
2022/05/28 08:04:22;;;;;;;7.95;1.40;;;;;;;16.78;50.40;102094.81;5019189;28;20042;-68
2022/05/28 08:06:47;;;;;;;5.22;1.35;;;;;;;16.40;53.74;102092.03;5013213;28;20048;-68
2022/05/28 08:09:13;;;;;;;6.85;1.50;;;;;;;15.55;52.34;102100.25;5011533;28;20037;-68
2022/05/28 08:11:39;;;;;;;5.55;1.52;;;;;;;14.92;54.55;102097.97;5010143;28;20126;-68
2022/05/28 08:14:05;;;;;;;11.88;1.45;;;;;;;14.29;56.07;102108.03;5029206;28;20037;-68
2022/05/28 08:16:30;;;;;;;13.10;2.70;;;;;;;14.11;62.12;102113.53;5032844;28;20768;-69
2022/05/28 08:18:56;;;;;;;7.88;1.63;;;;;;;14.03;59.25;102112.25;5029359;28;20037;-69
2022/05/28 08:24:06;;;;;;;10.50;2.13;;;;;;;14.45;60.48;102116.91;5028531;28;20056;-68
2022/05/28 08:26:33;;;;;;;8.90;1.70;;;;;;;14.60;59.02;102116.03;5024932;28;20681;-69
2022/05/28 08:28:58;;;;;;;9.05;1.60;;;;;;;15.38;57.66;102113.91;5030547;28;20033;-68
2022/05/28 08:31:27;;;;;;;5.85;1.60;;;;;;;14.98;58.05;102107.47;5024940;28;20045;-70
2022/05/28 08:33:53;;;;;;;11.23;2.33;;;;;;;14.67;59.45;102120.09;5027183;28;20036;-70
2022/05/28 08:36:19;;;;;;;8.52;1.60;;;;;;;14.37;62.38;102119.19;5025396;28;20144;-70
2022/05/28 08:38:45;;;;;;;9.98;2.10;;;;;;;14.48;62.88;102125.69;5028889;28;20037;-70
2022/05/28 08:41:24;;;;;;;11.80;2.75;;;;;;;14.45;60.93;102123.13;5026986;28;20107;-70
2022/05/28 08:44:02;;;;;;;8.82;1.60;;;;;;;15.26;59.79;102120.03;5026298;28;20427;-69
2022/05/28 08:46:33;;;;;;;5.55;1.65;;;;;;;15.61;58.10;102117.81;5031088;28;20468;-70
2022/05/28 08:48:59;;;;;;;12.43;2.30;;;;;;;16.20;55.86;102117.59;5034484;28;20048;-69
2022/05/28 08:51:58;;;;;;;15.50;1.90;;;;;;;16.90;55.77;102107.41;5031547;28;20227;-69
2022/05/28 08:54:39;;;;;;;6.30;2.08;;;;;;;17.97;51.34;102102.44;5016070;28;20048;-70
2022/05/28 08:57:11;;;;;;;6.10;1.40;;;;;;;18.95;53.59;102094.06;5038818;28;20168;-69
2022/05/28 09:00:00;;;;;;;6.22;1.88;;;;;;;17.23;48.29;102089.84;5035872;28;20249;-69
2022/05/28 09:02:36;;;;;;;8.05;2.00;;;;;;;16.49;52.77;102099.47;5020096;28;20049;-68
2022/05/28 09:05:07;;;;;;;6.10;1.77;;;;;;;15.53;52.59;102099.50;5023308;28;20041;-68
2022/05/28 09:07:32;;;;;;;7.28;2.03;;;;;;;15.71;54.11;102099.28;5027471;28;20413;-68
2022/05/28 09:09:58;;;;;;;11.15;1.70;;;;;;;15.38;53.17;102099.59;5017603;28;20042;-68
2022/05/28 09:12:29;;;;;;;6.60;1.50;;;;;;;15.42;57.86;102102.00;5028322;28;20834;-69
2022/05/28 09:14:55;;;;;;;8.63;2.35;;;;;;;16.65;53.78;102091.22;5025098;28;20045;-68
2022/05/28 09:17:32;;;;;;;6.60;1.63;;;;;;;17.57;53.85;102081.06;5028084;28;20033;-68
2022/05/28 09:20:06;;;;;;;6.90;1.73;;;;;;;17.14;52.48;102077.88;5032660;28;20072;-67
2022/05/28 09:22:32;;;;;;;5.72;1.75;;;;;;;17.78;49.66;102081.34;5026665;28;20045;-68
2022/05/28 09:24:57;;;;;;;6.38;1.40;;;;;;;17.53;47.50;102073.28;5029061;28;20097;-68
2022/05/28 09:27:44;;;;;;;11.77;2.30;;;;;;;18.43;47.65;102071.09;5027083;28;20049;-68
2022/05/28 09:30:16;;;;;;;5.22;1.50;;;;;;;19.28;48.55;102083.28;5029672;28;20766;-68
2022/05/28 09:32:51;;;;;;;3.75;1.58;;;;;;;17.51;44.89;102089.56;5029476;28;20859;-68
2022/05/28 09:35:38;;;;;;;4.07;1.50;;;;;;;16.57;47.36;102095.31;5024843;28;20045;-68
2022/05/28 09:38:16;;;;;;;7.72;1.60;;;;;;;15.94;47.59;102098.66;5027866;28;20912;-68
2022/05/28 09:40:51;;;;;;;8.88;1.90;;;;;;;15.97;48.03;102093.09;5035842;28;20040;-68
2022/05/28 09:44:01;;;;;;;5.28;1.67;;;;;;;17.27;48.58;102097.63;5025963;28;20033;-70
2022/05/28 09:46:41;;;;;;;4.50;1.50;;;;;;;17.34;44.84;102076.47;4996879;28;20084;-70
2022/05/28 09:49:17;;;;;;;8.10;1.92;;;;;;;17.22;44.96;102093.50;5007098;28;20045;-68
2022/05/28 09:51:57;;;;;;;3.33;1.20;;;;;;;17.53;45.27;102084.09;5007420;28;20364;-68
2022/05/28 09:54:27;;;;;;;5.40;1.50;;;;;;;17.94;42.65;102086.44;5006383;28;20541;-69
2022/05/28 09:57:20;;;;;;;5.75;1.42;;;;;;;17.65;43.15;102080.47;4997324;28;20045;-68
2022/05/28 10:00:03;;;;;;;3.70;1.52;;;;;;;16.99;47.20;102078.97;5008753;28;20041;-69
2022/05/28 10:02:34;;;;;;;3.72;1.02;;;;;;;16.46;44.60;102087.06;5018596;28;20053;-68
2022/05/28 10:05:17;;;;;;;4.78;1.27;;;;;;;15.97;42.86;102092.22;5000793;28;20080;-68
2022/05/28 10:07:52;;;;;;;3.53;1.35;;;;;;;16.24;42.56;102089.50;5007271;28;20119;-69
2022/05/28 10:10:19;;;;;;;6.20;1.10;;;;;;;17.24;43.23;102078.94;4991199;28;20037;-68
2022/05/28 10:12:45;;;;;;;3.55;1.08;;;;;;;17.54;44.57;102069.63;5017063;28;20053;-68
2022/05/28 10:15:16;;;;;;;4.85;1.10;;;;;;;17.86;37.78;102065.41;4975356;28;20045;-68
2022/05/28 10:17:58;;;;;;;4.47;1.20;;;;;;;16.94;39.94;102062.28;5006878;28;20053;-69
2022/05/28 10:20:24;;;;;;;7.65;1.15;;;;;;;17.41;40.40;102068.78;5007135;28;20543;-68
2022/05/28 10:22:52;;;;;;;8.20;1.20;;;;;;;17.77;41.00;102065.25;5033514;28;20111;-70
2022/05/28 10:25:34;;;;;;;3.90;1.25;;;;;;;17.12;40.09;102069.06;5021405;28;20041;-68
2022/05/28 10:28:00;;;;;;;6.43;1.17;;;;;;;18.65;38.70;102057.63;5019929;28;20037;-69
2022/05/28 10:30:36;;;;;;;8.27;1.10;;;;;;;20.08;37.75;102050.53;5011418;28;20033;-70
2022/05/28 10:33:11;;;;;;;3.70;0.95;;;;;;;19.03;35.94;102054.63;5027006;28;20052;-70
2022/05/28 10:35:38;;;;;;;4.97;1.25;;;;;;;17.75;39.69;102059.09;5027622;28;20045;-70
2022/05/28 10:38:06;;;;;;;6.97;1.42;;;;;;;17.13;43.34;102059.13;5018394;28;20030;-70
2022/05/28 10:40:32;;;;;;;6.07;1.30;;;;;;;15.97;46.99;102089.53;5031785;28;20326;-69
2022/05/28 10:43:19;;;;;;;13.23;2.22;;;;;;;15.65;50.06;102083.56;5012482;28;20109;-69
2022/05/28 10:45:48;;;;;;;9.20;1.67;;;;;;;16.17;45.12;102088.22;5012959;28;20064;-69
2022/05/28 10:48:30;;;;;;;2.05;1.27;;;;;;;17.60;42.55;102077.25;5025202;28;20052;-68
2022/05/28 10:51:21;;;;;;;5.60;1.48;;;;;;;18.17;46.68;102064.94;5034251;28;20114;-69
2022/05/28 10:54:08;;;;;;;7.95;2.38;;;;;;;19.37;43.89;102060.88;5018854;28;20049;-68
2022/05/28 10:56:36;;;;;;;6.95;1.63;;;;;;;18.99;39.95;102058.56;5010103;28;20065;-69
2022/05/28 10:59:35;;;;;;;3.78;1.20;;;;;;;17.97;42.39;102063.75;5019501;28;20124;-68
2022/05/28 11:02:16;;;;;;;2.97;1.50;;;;;;;17.43;43.97;102064.16;5031913;28;20116;-67
2022/05/28 11:04:44;;;;;;;7.93;1.58;;;;;;;16.90;44.46;102068.84;5025261;28;20041;-68
2022/05/28 11:07:27;;;;;;;5.70;1.50;;;;;;;16.62;45.63;102069.84;5023136;28;20111;-68
2022/05/28 11:09:56;;;;;;;5.30;1.60;;;;;;;16.45;47.98;102065.66;5020884;28;20126;-68
2022/05/28 11:12:54;;;;;;;4.70;1.55;;;;;;;17.67;42.80;102056.06;5028746;28;20037;-70
2022/05/28 11:15:47;;;;;;;8.18;1.85;;;;;;;18.60;43.13;102057.13;5028004;28;20458;-68
2022/05/28 11:18:31;;;;;;;5.22;1.52;;;;;;;18.77;42.77;102040.47;5026333;28;20025;-68
2022/05/28 11:21:11;;;;;;;5.03;1.65;;;;;;;18.75;39.67;102038.88;5009062;28;20037;-68
2022/05/28 11:24:16;;;;;;;4.20;1.52;;;;;;;17.79;38.61;102045.28;5047434;28;20048;-68
2022/05/28 11:27:28;;;;;;;11.00;1.52;;;;;;;17.82;39.66;102053.16;5019672;28;20052;-68
2022/05/28 11:30:20;;;;;;;4.40;1.00;;;;;;;17.19;37.04;102045.22;4976031;28;20165;-68
2022/05/28 11:33:07;;;;;;;3.25;1.10;;;;;;;17.00;39.15;102040.28;5014709;28;20435;-70
2022/05/28 11:35:42;;;;;;;8.82;1.73;;;;;;;17.31;44.00;102047.88;5014834;28;20489;-70